Aérodrome :
LOGIN :

S'inscrire | Disclaimer

   EN    FR    IT 

 










Légende :    VFR   VFR Marginal   IFR   IFR Intensif   IFR Très Intensif
Visi : 
Plafond : 
>= 8 km
>= 3000ft
5 à 8 km
1000 à 3000 ft
1500m à 5 km
500 à 1000 ft
800 à 1500m
200 à 500 ft
< 800m
< 200 ft
Symboles :   Orages  Brouillard  Fortes neiges  Fortes précipitations  Vent > 20 kt
SIGMETs :   Divers  Orages  Givrage  Turbulence  Onde Orograph.  Cendres Volcan.






- Altitude de l'aérodrome : 53 ft
- Code IATA : HAM


EDDH - Hamburg

DERNIER METAR :
  • 161120Z AUTO 21011KT 180V240 9999 VCSH SCT031 SCT044 FEW///TCU 24/17 Q1008 TEMPO 23015G25KT SHRA

METARs EXPIRÉS :
  • 161050Z AUTO 22007KT 180V250 9999 VCSH SCT026 BKN033 FEW///CB 24/18 Q1009 TEMPO 24015G25KT SHRA
  • 161020Z AUTO 24008KT 200V260 9999 SCT023 BKN029 23/18 Q1008 NOSIG
  • 160950Z AUTO 19005KT 130V250 9999 SCT018 BKN026 23/18 Q1008 BECMG 23011KT
  • 160920Z AUTO 17006KT 120V190 9999 BKN016 22/19 Q1008 BECMG 23011KT
  • 160850Z AUTO 16007KT 120V200 9999 SCT013 BKN049 21/19 Q1008 BECMG 23012KT
  • 160820Z AUTO 16008KT 9999 FEW010 20/18 Q1008 BECMG 22012KT
  • 160750Z AUTO 16008KT 130V190 9999 FEW007 20/18 Q1008 BECMG 22012KT
  • 160650Z AUTO 14007KT 9999 BKN006 BKN034 BKN043 18/17 Q1009 BECMG 20009KT SCT008

TAF TAF EDDH
Valide du 16 à 06h jusqu'au 17 à 12h UTC


160500Z 1606/1712 14007KT 9999 SCT030
TEMPO 1606/1608 20013KT SHRA SCT012 BKN040CB
PROB30
TEMPO 1606/1609 BKN009
BECMG 1607/1610 22012KT
TEMPO 1610/1619 22015G25KT
PROB40
TEMPO 1612/1620 4500 SHRA BKN025CB
PROB30
TEMPO 1614/1619 22020G35KT 2500 TSRA BKN014CB
BECMG 1618/1620 22007KT
PROB30
TEMPO 1622/1701 4500 SHRA BKN014CB
PROB40
TEMPO 1701/1706 BKN010
BECMG 1706/1708 25012KT
PROB30
TEMPO 1706/1711 BKN012



MET'MAP, la Météo Aéronautique d'un coup d'oeil ! - Copyright ORBIFLY Décembre 2007 - Disclaimer

ORBIFLY MET'MAP TEAM :

Programmation & Développement : Alexandra Zaïnal
Sur une idée originale de : Baudouin d'Aumeries
Soutien technique & logistique : Manuel Goepfert
Assistance : Marc-Olivier Méhu




SOURCES & CREDITS :

   NOAA